Time;durP1;ratioP1;P1;durP2;ratioP2;P2;SDS_P1;SDS_P2;PMS_P1;PMS_P2;Temp;Humidity;BMP_temperature;BMP_pressure;BME280_temperature;BME280_humidity;BME280_pressure;Samples;Min_cycle;Max_cycle;Signal;HPM_P1;HPM_P2
2021/07/08 00:02:32;;;;;;;5.55;3.53;;;26.90;56.90;;;;;;6183360;28;81380;-65
2021/07/08 00:05:33;;;;;;;10.48;3.42;;;26.80;56.70;;;;;;6182848;28;80422;-65
2021/07/08 00:08:33;;;;;;;5.57;3.85;;;26.80;56.50;;;;;;6177982;28;81149;-65
2021/07/08 00:11:34;;;;;;;10.35;4.00;;;26.70;56.90;;;;;;6178300;28;80585;-65
2021/07/08 00:14:34;;;;;;;5.32;3.30;;;26.70;56.50;;;;;;6180510;28;82409;-65
2021/07/08 00:17:35;;;;;;;7.65;3.55;;;26.70;56.20;;;;;;6177677;28;80589;-65
2021/07/08 00:20:35;;;;;;;6.38;3.30;;;26.70;56.60;;;;;;6174335;28;81443;-64
2021/07/08 00:23:36;;;;;;;6.45;3.03;;;26.70;56.50;;;;;;6183236;28;80356;-64
2021/07/08 00:26:36;;;;;;;4.38;3.22;;;26.70;56.30;;;;;;6174080;28;81745;-64
2021/07/08 00:29:37;;;;;;;7.63;3.53;;;26.70;56.20;;;;;;6176386;28;80587;-64
2021/07/08 00:32:37;;;;;;;9.48;3.40;;;26.70;56.40;;;;;;6171259;28;81249;-66
2021/07/08 00:35:39;;;;;;;6.78;3.85;;;26.70;56.30;;;;;;6173575;28;80493;-66
2021/07/08 00:38:39;;;;;;;4.32;2.90;;;26.70;56.30;;;;;;6180734;28;81109;-66
2021/07/08 00:41:40;;;;;;;10.57;4.35;;;26.70;56.10;;;;;;6179828;28;80522;-65
2021/07/08 00:44:40;;;;;;;10.15;3.38;;;26.70;56.00;;;;;;6194992;28;82989;-66
2021/07/08 00:47:41;;;;;;;7.65;3.35;;;26.70;56.00;;;;;;6181499;28;80458;-66
2021/07/08 00:50:46;;;;;;;6.45;3.03;;;26.70;56.00;;;;;;6178228;28;81597;-66
2021/07/08 00:53:47;;;;;;;6.55;3.55;;;26.70;56.10;;;;;;6170206;28;81205;-66
2021/07/08 00:56:48;;;;;;;5.75;3.28;;;26.70;56.20;;;;;;6174242;28;80124;-64
2021/07/08 00:59:52;;;;;;;5.32;3.65;;;26.70;56.00;;;;;;6181512;28;81365;-65
2021/07/08 01:02:54;;;;;;;7.97;3.85;;;26.80;56.10;;;;;;6174479;28;81443;-65
2021/07/08 01:05:54;;;;;;;4.75;3.30;;;26.80;56.20;;;;;;6170353;28;80676;-65
2021/07/08 01:08:55;;;;;;;5.30;2.95;;;26.70;55.90;;;;;;6172351;28;81387;-66
2021/07/08 01:11:56;;;;;;;9.02;3.42;;;26.70;56.00;;;;;;6171856;28;81491;-65
2021/07/08 01:14:56;;;;;;;5.50;3.08;;;26.70;56.00;;;;;;6180648;28;82758;-66
2021/07/08 01:17:57;;;;;;;8.75;3.38;;;26.70;56.00;;;;;;6180025;28;80795;-66
2021/07/08 01:20:57;;;;;;;8.43;3.15;;;26.70;55.80;;;;;;6165924;28;80416;-66
2021/07/08 01:23:58;;;;;;;5.45;2.90;;;26.70;55.90;;;;;;6180664;28;81043;-66
2021/07/08 01:26:58;;;;;;;8.35;3.85;;;26.70;55.70;;;;;;6175452;28;80705;-65
2021/07/08 01:29:59;;;;;;;6.72;3.05;;;26.70;55.80;;;;;;6179182;28;80412;-65
2021/07/08 01:33:00;;;;;;;7.57;2.67;;;26.80;55.90;;;;;;6169550;28;81308;-64
2021/07/08 01:36:00;;;;;;;7.07;3.30;;;26.70;56.00;;;;;;6172029;28;80628;-66
2021/07/08 01:39:01;;;;;;;7.80;2.70;;;26.70;55.80;;;;;;6181552;28;80374;-64
2021/07/08 01:42:01;;;;;;;7.22;3.00;;;26.70;55.90;;;;;;6170956;28;80493;-65
2021/07/08 01:45:02;;;;;;;8.27;3.42;;;26.80;55.70;;;;;;6186716;28;81372;-65
2021/07/08 01:48:02;;;;;;;4.55;3.47;;;26.70;55.70;;;;;;6181905;28;81696;-65
2021/07/08 01:51:03;;;;;;;5.13;3.47;;;26.70;55.60;;;;;;6171438;28;80585;-66
2021/07/08 01:54:03;;;;;;;3.88;3.10;;;26.70;55.60;;;;;;6180541;28;80844;-67
2021/07/08 01:57:04;;;;;;;4.70;3.40;;;26.70;55.60;;;;;;6181908;28;80444;-67
2021/07/08 02:00:04;;;;;;;8.00;3.63;;;26.70;55.50;;;;;;6180097;28;81750;-66
2021/07/08 02:03:12;;;;;;;3.70;3.17;;;26.70;55.70;;;;;;6180961;28;80274;-67
2021/07/08 02:06:13;;;;;;;9.38;3.55;;;26.70;55.60;;;;;;6183372;28;81479;-67
2021/07/08 02:09:13;;;;;;;6.63;3.92;;;26.70;55.50;;;;;;6177953;28;80591;-67
2021/07/08 02:12:14;;;;;;;8.32;3.38;;;26.70;55.50;;;;;;6178091;28;80390;-67
2021/07/08 02:15:14;;;;;;;6.72;3.50;;;26.70;55.60;;;;;;6180393;28;80449;-67
2021/07/08 02:18:15;;;;;;;4.47;3.40;;;26.70;55.50;;;;;;6178938;28;80370;-66
2021/07/08 02:21:15;;;;;;;5.55;3.42;;;26.70;55.60;;;;;;6178120;28;82169;-66
2021/07/08 02:24:16;;;;;;;5.80;3.00;;;26.60;55.60;;;;;;6176782;28;80242;-66
2021/07/08 02:27:16;;;;;;;6.93;3.50;;;26.70;55.60;;;;;;6176425;28;80520;-66
2021/07/08 02:30:17;;;;;;;12.90;4.60;;;26.60;55.40;;;;;;6180501;28;80284;-66
2021/07/08 02:33:18;;;;;;;5.30;3.53;;;26.60;55.60;;;;;;6173918;28;80470;-66
2021/07/08 02:36:18;;;;;;;6.40;3.50;;;26.60;55.40;;;;;;6176356;28;80437;-65
2021/07/08 02:39:19;;;;;;;3.97;3.20;;;26.60;55.40;;;;;;6184232;28;80435;-66
2021/07/08 02:42:19;;;;;;;6.93;4.05;;;26.60;55.50;;;;;;6178234;28;81495;-65
2021/07/08 02:45:20;;;;;;;7.93;3.70;;;26.50;55.40;;;;;;6183215;28;82366;-65
2021/07/08 02:48:20;;;;;;;5.85;3.25;;;26.50;55.60;;;;;;6178330;28;80417;-65
2021/07/08 02:51:21;;;;;;;5.05;3.58;;;26.50;55.50;;;;;;6181339;28;80369;-65
2021/07/08 02:54:21;;;;;;;5.57;3.17;;;26.50;55.60;;;;;;6182952;28;80455;-65
2021/07/08 02:57:22;;;;;;;9.02;4.03;;;26.50;55.70;;;;;;6183781;28;80966;-66
2021/07/08 03:00:22;;;;;;;5.38;3.72;;;26.50;55.70;;;;;;6173625;28;80748;-66
2021/07/08 03:03:23;;;;;;;7.32;3.53;;;26.40;55.60;;;;;;6182758;28;81518;-66
2021/07/08 03:06:23;;;;;;;5.65;3.78;;;26.40;55.40;;;;;;6177988;28;80363;-66
2021/07/08 03:09:24;;;;;;;6.88;3.80;;;26.40;55.50;;;;;;6182399;28;81612;-66
2021/07/08 03:12:24;;;;;;;5.78;4.20;;;26.40;55.60;;;;;;6184078;28;80460;-66
2021/07/08 03:15:25;;;;;;;5.75;3.85;;;26.30;55.60;;;;;;6192787;28;81851;-66
2021/07/08 03:18:25;;;;;;;8.98;3.97;;;26.30;55.60;;;;;;6170239;28;80957;-67
2021/07/08 03:21:26;;;;;;;6.85;3.72;;;26.30;55.60;;;;;;6182393;28;80301;-66
2021/07/08 03:24:26;;;;;;;11.38;3.70;;;26.30;55.50;;;;;;6182517;28;83023;-66
2021/07/08 03:27:27;;;;;;;5.25;4.03;;;26.30;55.80;;;;;;6182671;28;86090;-67
2021/07/08 03:30:30;;;;;;;12.65;3.75;;;26.30;55.70;;;;;;6178080;28;80985;-66
2021/07/08 03:33:30;;;;;;;9.48;4.80;;;26.30;55.70;;;;;;6183292;28;80998;-66
2021/07/08 03:36:31;;;;;;;8.35;4.10;;;26.20;55.70;;;;;;6183879;28;83006;-66
2021/07/08 03:39:31;;;;;;;6.07;4.03;;;26.20;55.70;;;;;;6171917;28;80256;-66
2021/07/08 03:42:34;;;;;;;6.75;3.65;;;26.30;55.80;;;;;;6174419;28;81367;-66
2021/07/08 03:45:35;;;;;;;5.70;4.38;;;26.30;55.80;;;;;;6182078;28;81036;-65
2021/07/08 03:48:35;;;;;;;7.38;5.22;;;26.30;55.80;;;;;;6180208;28;83554;-65
2021/07/08 03:51:36;;;;;;;7.03;4.57;;;26.40;55.60;;;;;;6182911;28;80371;-65
2021/07/08 03:54:36;;;;;;;9.27;4.47;;;26.40;55.50;;;;;;6182271;28;80311;-65
2021/07/08 03:57:52;;;;;;;9.82;4.72;;;26.40;55.50;;;;;;6184254;28;80960;-65
2021/07/08 04:00:52;;;;;;;7.97;4.40;;;26.40;55.40;;;;;;6172916;28;81110;-65
2021/07/08 04:03:53;;;;;;;10.48;4.15;;;26.40;55.30;;;;;;6177398;28;80852;-65
2021/07/08 04:06:53;;;;;;;8.10;3.90;;;26.40;55.30;;;;;;6174490;28;80926;-64
2021/07/08 04:09:54;;;;;;;6.13;3.63;;;26.40;55.10;;;;;;6176738;28;81167;-65
2021/07/08 04:12:54;;;;;;;5.43;3.50;;;26.40;55.10;;;;;;6179680;28;81037;-66
2021/07/08 04:15:55;;;;;;;8.65;4.05;;;26.40;55.30;;;;;;6174698;28;82604;-66
2021/07/08 04:18:55;;;;;;;9.43;5.15;;;26.40;55.20;;;;;;6192545;28;81872;-66
2021/07/08 04:21:56;;;;;;;19.02;5.55;;;26.40;55.30;;;;;;6169884;28;81168;-65
2021/07/08 04:24:56;;;;;;;6.03;4.15;;;26.50;55.60;;;;;;6171939;28;80370;-65
2021/07/08 04:27:57;;;;;;;9.30;4.03;;;26.50;55.80;;;;;;6166001;28;80659;-65
2021/07/08 04:30:57;;;;;;;6.38;3.72;;;26.60;55.40;;;;;;6167461;28;80842;-65
2021/07/08 04:33:58;;;;;;;5.63;3.70;;;26.60;55.40;;;;;;6169866;28;82808;-65
2021/07/08 04:37:00;;;;;;;8.52;3.50;;;26.60;55.30;;;;;;6170998;28;80488;-65
2021/07/08 04:40:01;;;;;;;8.60;3.90;;;26.60;55.20;;;;;;6168688;28;80725;-66
2021/07/08 04:43:01;;;;;;;5.22;3.83;;;26.50;55.00;;;;;;6165279;28;80575;-66
2021/07/08 04:46:02;;;;;;;4.82;3.60;;;26.60;55.20;;;;;;6168241;28;80355;-66
2021/07/08 04:49:02;;;;;;;4.57;3.33;;;26.60;55.20;;;;;;6167509;28;80608;-66
2021/07/08 04:52:03;;;;;;;7.68;4.00;;;26.60;55.20;;;;;;6165510;28;80484;-66
2021/07/08 04:55:03;;;;;;;10.15;3.97;;;26.60;55.30;;;;;;6162923;28;80932;-65
2021/07/08 04:58:04;;;;;;;9.30;3.97;;;26.60;55.30;;;;;;6177780;28;80439;-65
2021/07/08 05:01:04;;;;;;;6.82;4.00;;;26.50;55.20;;;;;;6164133;28;81201;-65
2021/07/08 05:04:05;;;;;;;10.85;3.60;;;26.60;55.30;;;;;;6166031;28;81512;-66
2021/07/08 05:07:05;;;;;;;7.25;3.83;;;26.60;55.30;;;;;;6167377;28;80652;-67
2021/07/08 05:10:06;;;;;;;5.25;3.60;;;26.60;55.20;;;;;;6175761;28;80243;-66
2021/07/08 05:13:06;;;;;;;7.57;3.60;;;26.60;55.00;;;;;;6163273;28;80411;-66
2021/07/08 05:16:07;;;;;;;5.22;3.88;;;26.70;55.20;;;;;;6169395;28;80878;-65
2021/07/08 05:19:07;;;;;;;8.27;3.90;;;26.70;55.50;;;;;;6168805;28;80736;-65
2021/07/08 05:22:08;;;;;;;9.82;4.07;;;26.70;55.40;;;;;;6168785;28;80441;-67
2021/07/08 05:25:08;;;;;;;7.80;3.72;;;26.70;55.40;;;;;;6168601;28;80871;-65
2021/07/08 05:28:09;;;;;;;16.65;4.18;;;26.80;55.80;;;;;;6181369;28;82884;-67
2021/07/08 05:31:09;;;;;;;8.60;3.45;;;26.80;55.50;;;;;;6168634;28;80564;-65
2021/07/08 05:34:10;;;;;;;7.38;3.60;;;26.80;55.50;;;;;;6177850;28;80214;-65
2021/07/08 05:37:10;;;;;;;7.65;3.75;;;26.90;55.50;;;;;;6170438;28;82876;-64
2021/07/08 05:40:11;;;;;;;10.40;3.80;;;26.90;55.40;;;;;;6168465;28;82367;-66
2021/07/08 05:43:11;;;;;;;6.85;3.50;;;26.90;55.40;;;;;;6182672;28;86098;-64
2021/07/08 05:46:12;;;;;;;11.60;3.95;;;26.90;55.40;;;;;;6177375;28;80394;-63
2021/07/08 05:49:12;;;;;;;7.85;4.50;;;26.90;55.30;;;;;;6175586;28;80299;-65
2021/07/08 05:52:13;;;;;;;8.80;3.67;;;27.00;55.60;;;;;;6178520;28;80526;-64
2021/07/08 05:55:14;;;;;;;9.52;4.20;;;27.00;55.30;;;;;;6179306;28;81934;-64
2021/07/08 05:58:14;;;;;;;7.10;3.78;;;27.00;55.30;;;;;;6179131;28;81519;-67
2021/07/08 06:01:15;;;;;;;7.75;4.47;;;27.00;55.60;;;;;;6180555;28;82384;-65
2021/07/08 06:04:15;;;;;;;9.80;4.10;;;27.00;55.30;;;;;;6170706;28;81187;-65
2021/07/08 06:07:16;;;;;;;11.52;4.18;;;27.00;55.40;;;;;;6167910;28;80698;-66
2021/07/08 06:10:16;;;;;;;10.15;4.53;;;27.00;56.00;;;;;;6167012;28;81907;-65
2021/07/08 06:13:17;;;;;;;9.68;5.28;;;27.00;55.50;;;;;;6172038;28;80885;-64
2021/07/08 06:16:17;;;;;;;15.25;4.80;;;27.00;55.30;;;;;;6170525;28;81206;-65
2021/07/08 06:19:18;;;;;;;12.43;4.95;;;27.10;55.30;;;;;;6183229;28;81898;-64
2021/07/08 06:22:18;;;;;;;9.93;4.97;;;27.00;55.30;;;;;;6168304;28;81435;-66
2021/07/08 06:25:19;;;;;;;10.15;4.72;;;27.00;55.70;;;;;;6166912;28;80759;-64
2021/07/08 06:28:20;;;;;;;11.02;4.60;;;27.10;55.50;;;;;;6165735;28;80286;-65
2021/07/08 06:31:20;;;;;;;7.88;5.75;;;27.10;55.30;;;;;;6162761;28;81359;-65
2021/07/08 06:34:21;;;;;;;13.38;5.45;;;27.10;55.10;;;;;;6170174;28;81149;-67
2021/07/08 06:37:21;;;;;;;8.80;5.10;;;27.10;55.60;;;;;;6171993;28;80856;-66
2021/07/08 06:40:22;;;;;;;9.65;4.60;;;27.10;55.70;;;;;;6166056;28;80542;-66
2021/07/08 06:43:22;;;;;;;15.70;5.10;;;27.10;55.70;;;;;;6169191;28;80578;-66
2021/07/08 06:46:29;;;;;;;11.18;5.20;;;27.10;55.60;;;;;;6173544;28;80454;-67
2021/07/08 06:49:30;;;;;;;8.77;5.15;;;27.10;55.90;;;;;;6171363;28;80517;-64
2021/07/08 06:52:31;;;;;;;7.32;4.75;;;27.10;56.00;;;;;;6166231;28;81292;-65
2021/07/08 06:55:31;;;;;;;13.40;4.97;;;27.20;56.20;;;;;;6165328;28;81516;-66
2021/07/08 06:58:32;;;;;;;20.20;5.00;;;27.20;56.00;;;;;;6170876;28;80409;-67
2021/07/08 07:01:32;;;;;;;12.45;5.07;;;27.10;55.60;;;;;;6169384;28;80479;-67
2021/07/08 07:04:33;;;;;;;6.75;4.53;;;27.10;55.70;;;;;;6169044;28;80234;-65
2021/07/08 07:07:34;;;;;;;11.93;5.00;;;27.10;55.80;;;;;;6172623;28;80922;-65
2021/07/08 07:10:34;;;;;;;12.82;5.00;;;27.10;55.90;;;;;;6175353;28;81093;-66
2021/07/08 07:13:35;;;;;;;11.38;4.90;;;27.10;56.30;;;;;;6168772;28;81265;-64
2021/07/08 07:16:35;;;;;;;6.38;4.78;;;27.10;56.60;;;;;;6170567;28;81030;-66
2021/07/08 07:19:36;;;;;;;20.20;6.13;;;27.20;56.40;;;;;;6171727;28;80863;-66
2021/07/08 07:22:36;;;;;;;14.25;5.78;;;27.20;56.20;;;;;;6167030;28;81338;-66
2021/07/08 07:25:40;;;;;;;8.32;5.18;;;27.20;56.60;;;;;;6170950;28;83471;-65
2021/07/08 07:28:41;;;;;;;13.05;5.50;;;27.20;56.80;;;;;;6183817;28;83845;-66
2021/07/08 07:31:41;;;;;;;14.65;5.43;;;27.20;57.20;;;;;;6173098;28;81829;-65
2021/07/08 07:34:42;;;;;;;15.55;5.57;;;27.20;56.60;;;;;;6165267;28;80816;-66
2021/07/08 07:37:42;;;;;;;9.48;5.13;;;27.30;56.80;;;;;;6169540;28;80320;-67
2021/07/08 07:40:43;;;;;;;11.90;5.18;;;27.30;56.80;;;;;;6167466;28;81107;-67
2021/07/08 07:43:45;;;;;;;11.85;5.25;;;27.30;56.80;;;;;;6164655;28;80727;-65
2021/07/08 07:46:46;;;;;;;8.80;4.47;;;27.20;56.60;;;;;;6164686;28;80419;-65
2021/07/08 07:49:47;;;;;;;11.75;5.15;;;27.20;57.00;;;;;;6167716;28;86247;-65
2021/07/08 07:52:47;;;;;;;7.22;4.90;;;27.30;57.10;;;;;;6168908;28;80489;-64
2021/07/08 07:55:49;;;;;;;9.00;4.97;;;27.30;57.30;;;;;;6180187;28;80801;-64
2021/07/08 07:58:50;;;;;;;15.77;4.75;;;27.30;57.60;;;;;;6171209;28;80407;-67
2021/07/08 08:01:51;;;;;;;11.95;4.63;;;27.30;57.80;;;;;;6168064;28;80869;-64
2021/07/08 08:11:14;;;;;;;11.57;6.03;;;27.40;57.90;;;;;;6176431;28;81587;-65
2021/07/08 08:14:15;;;;;;;11.75;5.20;;;27.40;57.60;;;;;;6175742;28;80401;-65
2021/07/08 08:17:15;;;;;;;8.95;5.07;;;27.50;57.80;;;;;;6176305;28;81526;-65
2021/07/08 08:20:16;;;;;;;9.13;5.38;;;27.40;57.50;;;;;;6170532;28;81245;-64
2021/07/08 08:23:16;;;;;;;12.25;5.40;;;27.50;57.50;;;;;;6175206;28;80419;-65
2021/07/08 08:26:17;;;;;;;6.72;4.57;;;27.50;57.70;;;;;;6183853;28;80478;-65
2021/07/08 08:29:18;;;;;;;10.27;5.68;;;27.50;57.70;;;;;;6178605;28;80401;-65
2021/07/08 08:32:18;;;;;;;9.43;5.80;;;27.50;57.60;;;;;;6173482;28;80361;-65
2021/07/08 08:35:19;;;;;;;5.82;4.40;;;27.50;57.70;;;;;;6172052;28;80553;-65
2021/07/08 08:38:19;;;;;;;12.57;5.22;;;27.50;57.70;;;;;;6174550;28;83264;-65
2021/07/08 08:41:20;;;;;;;15.40;5.82;;;27.50;57.90;;;;;;6177512;28;82846;-66
2021/07/08 08:44:20;;;;;;;9.35;4.93;;;27.50;58.00;;;;;;6171736;28;80616;-65
2021/07/08 08:47:21;;;;;;;9.35;5.55;;;27.50;58.00;;;;;;6171482;28;83237;-65
2021/07/08 08:50:21;;;;;;;10.23;5.05;;;27.50;57.90;;;;;;6168197;28;80345;-65
2021/07/08 08:53:22;;;;;;;11.63;5.57;;;27.50;58.00;;;;;;6174214;28;80958;-65
2021/07/08 08:56:22;;;;;;;10.85;5.97;;;27.50;58.00;;;;;;6172919;28;82005;-65
2021/07/08 08:59:23;;;;;;;8.50;5.93;;;27.60;58.00;;;;;;6174912;28;80397;-65
2021/07/08 09:02:23;;;;;;;8.90;5.50;;;27.60;57.80;;;;;;6184433;28;80733;-64
2021/07/08 09:05:24;;;;;;;10.68;5.55;;;27.60;58.00;;;;;;6176244;28;81270;-64
2021/07/08 09:08:24;;;;;;;8.57;5.95;;;27.60;58.10;;;;;;6173218;28;80524;-66
2021/07/08 09:11:26;;;;;;;12.43;7.50;;;27.70;58.30;;;;;;6180245;28;81802;-65
2021/07/08 09:14:26;;;;;;;28.67;11.13;;;27.60;58.90;;;;;;6177570;28;80146;-65
2021/07/08 09:17:27;;;;;;;53.58;16.33;;;27.60;59.10;;;;;;6174614;28;86730;-65
2021/07/08 09:20:27;;;;;;;57.85;19.70;;;27.60;60.10;;;;;;6169926;28;83899;-65
2021/07/08 09:23:28;;;;;;;101.07;33.22;;;27.70;64.20;;;;;;6169303;28;83032;-65
2021/07/08 09:26:28;;;;;;;98.07;30.35;;;27.80;66.30;;;;;;6177936;28;83453;-66
2021/07/08 09:29:29;;;;;;;74.60;22.60;;;27.80;66.20;;;;;;6173929;28;85736;-65
2021/07/08 09:32:30;;;;;;;48.13;18.70;;;27.80;62.70;;;;;;6169585;28;83082;-65
2021/07/08 09:35:31;;;;;;;59.63;17.95;;;27.80;62.30;;;;;;6177089;28;83809;-66
2021/07/08 09:38:31;;;;;;;42.63;16.10;;;27.80;61.80;;;;;;6177410;28;83915;-65
2021/07/08 09:41:32;;;;;;;44.50;15.80;;;27.80;61.70;;;;;;6179123;28;83232;-65
2021/07/08 09:44:33;;;;;;;26.13;11.73;;;27.80;61.90;;;;;;6176583;28;83207;-65
2021/07/08 09:47:33;;;;;;;29.20;11.77;;;27.80;61.30;;;;;;6177940;28;83086;-65
2021/07/08 09:50:34;;;;;;;34.42;11.18;;;27.80;61.10;;;;;;6174131;28;83777;-65
2021/07/08 09:53:34;;;;;;;22.65;10.02;;;27.80;60.70;;;;;;6181934;28;84961;-66
2021/07/08 09:56:43;;;;;;;23.52;10.00;;;27.80;60.60;;;;;;6181451;28;83256;-66
2021/07/08 09:59:46;;;;;;;18.85;8.93;;;27.80;60.70;;;;;;6180624;28;83590;-65
2021/07/08 10:02:46;;;;;;;20.15;9.23;;;27.90;61.20;;;;;;6178979;28;81592;-65
2021/07/08 10:05:47;;;;;;;18.13;8.82;;;27.90;61.00;;;;;;6183981;28;80460;-65
2021/07/08 10:08:47;;;;;;;14.48;8.07;;;27.90;61.30;;;;;;6179855;28;81397;-65
2021/07/08 10:11:48;;;;;;;15.98;8.02;;;27.90;61.00;;;;;;6174398;28;80710;-65
2021/07/08 10:14:48;;;;;;;17.73;8.07;;;27.90;60.60;;;;;;6178754;28;80078;-65
2021/07/08 10:17:49;;;;;;;20.45;8.02;;;27.90;61.10;;;;;;6185977;28;80857;-65
2021/07/08 10:20:49;;;;;;;14.77;7.55;;;27.90;60.60;;;;;;6182785;28;81202;-64
2021/07/08 10:23:50;;;;;;;12.52;8.45;;;27.90;60.70;;;;;;6182654;28;80483;-65
2021/07/08 10:26:50;;;;;;;16.40;8.85;;;27.90;60.60;;;;;;6185578;28;80500;-64
2021/07/08 10:29:51;;;;;;;18.20;8.80;;;27.90;61.10;;;;;;6183175;28;80423;-64
2021/07/08 10:32:52;;;;;;;14.57;8.52;;;28.00;61.10;;;;;;6171370;28;81976;-68
2021/07/08 10:35:52;;;;;;;14.80;8.30;;;28.00;61.10;;;;;;6184884;28;80729;-65
2021/07/08 10:38:53;;;;;;;12.82;9.00;;;28.00;61.10;;;;;;6189442;28;83128;-66
2021/07/08 10:41:53;;;;;;;14.27;9.35;;;28.00;61.10;;;;;;6170661;28;80271;-66
2021/07/08 10:44:54;;;;;;;15.30;9.38;;;28.00;61.50;;;;;;6174096;28;80502;-65
2021/07/08 10:47:54;;;;;;;13.50;8.38;;;28.10;61.20;;;;;;6173834;28;80785;-65
2021/07/08 10:50:55;;;;;;;10.48;8.35;;;28.00;61.20;;;;;;6182221;28;80389;-66
2021/07/08 10:53:55;;;;;;;13.70;8.77;;;28.00;61.00;;;;;;6174638;28;83206;-65
2021/07/08 10:56:56;;;;;;;20.52;9.13;;;28.00;61.70;;;;;;6183380;28;80826;-65
2021/07/08 10:59:56;;;;;;;13.82;8.38;;;28.10;61.70;;;;;;6179827;28;80726;-66
2021/07/08 11:02:57;;;;;;;15.77;9.60;;;28.10;61.50;;;;;;6182789;28;81565;-65
2021/07/08 11:05:57;;;;;;;14.07;8.38;;;28.10;61.40;;;;;;6183500;28;80609;-66
2021/07/08 11:09:05;;;;;;;10.38;8.68;;;28.10;62.00;;;;;;6180620;28;80432;-64
2021/07/08 11:12:05;;;;;;;15.18;9.45;;;28.20;61.70;;;;;;6176964;28;80777;-66
2021/07/08 11:15:06;;;;;;;15.77;8.70;;;28.30;61.40;;;;;;6169754;28;80595;-66
2021/07/08 11:18:07;;;;;;;16.42;9.10;;;28.20;61.20;;;;;;6176124;28;82576;-66
2021/07/08 11:21:07;;;;;;;13.90;10.30;;;28.20;62.40;;;;;;6173812;28;81482;-66
2021/07/08 11:24:08;;;;;;;18.40;9.52;;;28.30;62.20;;;;;;6168732;28;83163;-66
2021/07/08 11:27:08;;;;;;;17.63;9.90;;;28.40;61.80;;;;;;6173028;28;82904;-65
2021/07/08 11:30:11;;;;;;;10.63;8.77;;;28.40;61.20;;;;;;6174082;28;80510;-66
2021/07/08 11:33:11;;;;;;;13.68;8.70;;;28.40;61.30;;;;;;6171659;28;80374;-66
2021/07/08 11:36:14;;;;;;;12.52;9.15;;;28.40;61.20;;;;;;6171593;28;80607;-66
2021/07/08 11:39:14;;;;;;;16.00;8.82;;;28.40;62.00;;;;;;6174151;28;80620;-67
2021/07/08 11:42:15;;;;;;;15.43;9.60;;;28.50;61.90;;;;;;6177874;28;81246;-68
2021/07/08 11:45:15;;;;;;;12.30;9.43;;;28.50;62.10;;;;;;6179683;28;82252;-66
2021/07/08 11:48:16;;;;;;;27.02;10.40;;;28.50;61.80;;;;;;6176041;28;81029;-67
2021/07/08 11:51:16;;;;;;;11.48;9.02;;;28.50;61.70;;;;;;6171823;28;83103;-66
2021/07/08 11:54:17;;;;;;;15.88;9.07;;;28.40;61.90;;;;;;6174389;28;83969;-67
2021/07/08 11:57:17;;;;;;;16.50;9.38;;;28.40;61.50;;;;;;6174928;28;80100;-66
2021/07/08 12:00:18;;;;;;;14.55;8.60;;;28.40;62.20;;;;;;6180797;28;81627;-67
2021/07/08 12:03:18;;;;;;;13.50;10.15;;;28.40;61.80;;;;;;6173148;28;80909;-67
2021/07/08 12:06:20;;;;;;;12.98;10.05;;;28.40;62.70;;;;;;6178919;28;82816;-67
2021/07/08 12:09:22;;;;;;;16.73;10.07;;;28.50;62.00;;;;;;6168979;28;83770;-67
2021/07/08 12:12:22;;;;;;;13.93;10.30;;;28.50;62.20;;;;;;6176850;28;84008;-66
2021/07/08 12:15:23;;;;;;;13.45;9.50;;;28.50;61.80;;;;;;6171110;28;83076;-66
2021/07/08 12:18:23;;;;;;;10.25;9.20;;;28.50;62.40;;;;;;6178960;28;82635;-66
2021/07/08 12:21:24;;;;;;;12.32;9.30;;;28.50;61.90;;;;;;6175041;28;81425;-66
2021/07/08 12:24:25;;;;;;;12.15;9.32;;;28.50;62.00;;;;;;6178130;28;81075;-66
2021/07/08 12:27:27;;;;;;;16.35;9.13;;;28.40;62.10;;;;;;6171922;28;80191;-66
2021/07/08 12:30:27;;;;;;;11.60;9.75;;;28.50;63.10;;;;;;6174328;28;85855;-66
2021/07/08 12:33:28;;;;;;;16.40;10.50;;;28.50;62.80;;;;;;6180976;28;81183;-67
2021/07/08 12:36:28;;;;;;;12.90;9.57;;;28.60;62.40;;;;;;6178190;28;82801;-66
2021/07/08 12:39:29;;;;;;;10.35;9.25;;;28.60;62.90;;;;;;6174844;28;81813;-66
2021/07/08 12:42:29;;;;;;;12.98;9.95;;;28.70;63.00;;;;;;6182917;28;80461;-66
2021/07/08 12:45:30;;;;;;;16.15;10.48;;;28.80;63.40;;;;;;6175409;28;81138;-66
2021/07/08 12:48:30;;;;;;;19.55;9.98;;;28.90;63.00;;;;;;6179850;28;83200;-66
2021/07/08 12:51:31;;;;;;;11.68;8.77;;;28.90;62.50;;;;;;6178447;28;83044;-66
2021/07/08 12:54:32;;;;;;;13.20;9.52;;;28.80;62.00;;;;;;6179703;28;80431;-65
2021/07/08 12:57:33;;;;;;;11.73;9.27;;;28.70;62.30;;;;;;6176908;28;80881;-66
2021/07/08 13:00:34;;;;;;;15.35;9.98;;;28.60;62.20;;;;;;6179741;28;80652;-65
2021/07/08 13:03:35;;;;;;;13.10;8.93;;;28.70;62.80;;;;;;6185057;28;84004;-65
2021/07/08 13:06:36;;;;;;;14.80;10.02;;;28.60;63.60;;;;;;6183123;28;82990;-66
2021/07/08 13:09:36;;;;;;;15.82;10.93;;;28.70;64.10;;;;;;6168137;28;83447;-65
2021/07/08 13:12:37;;;;;;;15.23;10.10;;;28.80;64.10;;;;;;6172509;28;84546;-64
2021/07/08 13:15:37;;;;;;;10.95;9.80;;;28.90;63.40;;;;;;6173323;28;83248;-65
2021/07/08 13:18:38;;;;;;;10.82;9.60;;;28.80;62.70;;;;;;6182797;28;84252;-65
2021/07/08 13:21:38;;;;;;;12.30;9.30;;;28.80;63.40;;;;;;6178129;28;81431;-65
2021/07/08 13:24:39;;;;;;;10.65;9.55;;;28.70;63.00;;;;;;6165690;28;80633;-66
2021/07/08 13:27:40;;;;;;;15.38;10.02;;;28.70;63.10;;;;;;6175257;28;81998;-66
2021/07/08 13:30:41;;;;;;;11.27;10.00;;;28.70;63.00;;;;;;6178100;28;83068;-66
2021/07/08 13:33:41;;;;;;;13.95;10.23;;;28.70;63.00;;;;;;6166906;28;84183;-65
2021/07/08 13:36:43;;;;;;;13.45;9.68;;;28.60;63.30;;;;;;6174337;28;88739;-65
2021/07/08 13:39:44;;;;;;;13.48;10.18;;;28.60;63.40;;;;;;6170483;28;84030;-65
2021/07/08 13:42:45;;;;;;;14.00;10.52;;;28.60;64.90;;;;;;6171601;28;83795;-68
2021/07/08 13:45:45;;;;;;;14.90;10.57;;;28.70;64.40;;;;;;6165742;28;83507;-67
2021/07/08 13:48:46;;;;;;;15.60;10.75;;;28.70;64.10;;;;;;6168259;28;83630;-66
2021/07/08 13:51:46;;;;;;;14.02;10.48;;;28.60;64.30;;;;;;6167532;28;86495;-65
2021/07/08 13:54:47;;;;;;;18.38;11.07;;;28.60;64.20;;;;;;6163859;28;90309;-66
2021/07/08 13:57:47;;;;;;;22.23;11.43;;;28.60;64.40;;;;;;6166501;28;84156;-67
2021/07/08 14:00:48;;;;;;;17.75;11.13;;;28.60;64.80;;;;;;6170150;28;83416;-67
2021/07/08 14:03:48;;;;;;;15.07;12.23;;;28.50;64.90;;;;;;6167901;28;83037;-67
2021/07/08 14:06:50;;;;;;;15.82;10.60;;;28.50;65.50;;;;;;6172248;28;83352;-67
2021/07/08 14:09:51;;;;;;;16.88;10.57;;;28.60;65.50;;;;;;6164681;28;83151;-66
2021/07/08 14:12:51;;;;;;;16.48;10.70;;;28.60;65.60;;;;;;6163982;28;83328;-65
2021/07/08 14:15:52;;;;;;;19.45;11.95;;;28.60;66.10;;;;;;6166911;28;85182;-66
2021/07/08 14:18:53;;;;;;;11.57;10.32;;;28.70;65.50;;;;;;6177833;28;82863;-66
2021/07/08 14:21:53;;;;;;;12.38;10.30;;;28.70;65.40;;;;;;6165224;28;82859;-65
2021/07/08 14:24:54;;;;;;;14.32;10.43;;;28.70;65.30;;;;;;6177006;28;83218;-65
2021/07/08 14:27:54;;;;;;;17.02;11.10;;;28.70;65.70;;;;;;6173761;28;83246;-66
2021/07/08 14:30:56;;;;;;;18.95;11.93;;;28.70;65.90;;;;;;6181176;28;83436;-66
2021/07/08 14:33:57;;;;;;;16.52;12.30;;;28.80;66.50;;;;;;6175430;28;83183;-65
2021/07/08 14:36:59;;;;;;;13.45;12.00;;;28.90;65.80;;;;;;6171426;28;83177;-65
2021/07/08 14:39:59;;;;;;;12.73;11.43;;;28.90;65.50;;;;;;6175875;28;83006;-66
2021/07/08 14:43:00;;;;;;;18.77;10.52;;;28.80;66.10;;;;;;6180165;28;83115;-65
2021/07/08 14:46:01;;;;;;;19.40;11.80;;;28.80;66.20;;;;;;6172023;28;84359;-66
2021/07/08 14:49:01;;;;;;;169.25;65.10;;;28.80;65.90;;;;;;6179882;28;84112;-65
2021/07/08 14:52:02;;;;;;;198.98;83.20;;;28.80;65.90;;;;;;6171044;28;83448;-66
2021/07/08 14:55:02;;;;;;;217.82;88.90;;;28.80;66.10;;;;;;6179617;28;83057;-65
2021/07/08 14:58:03;;;;;;;198.13;79.05;;;28.90;65.80;;;;;;6169870;28;83213;-64
2021/07/08 15:01:03;;;;;;;131.20;54.80;;;29.00;65.50;;;;;;6181588;28;83343;-64
2021/07/08 15:04:04;;;;;;;156.10;62.28;;;29.00;65.00;;;;;;6169344;28;83682;-65
2021/07/08 15:07:05;;;;;;;186.95;78.25;;;29.00;64.90;;;;;;6171855;28;83033;-65
2021/07/08 15:10:10;;;;;;;207.45;81.80;;;28.90;64.80;;;;;;6175150;28;83661;-64
2021/07/08 15:13:11;;;;;;;166.55;67.78;;;28.90;64.90;;;;;;6170038;28;83161;-66
2021/07/08 15:16:11;;;;;;;111.82;48.85;;;28.90;65.20;;;;;;6169041;28;83351;-66
2021/07/08 15:19:12;;;;;;;103.22;43.15;;;28.90;65.20;;;;;;6180358;28;83142;-66
2021/07/08 15:22:12;;;;;;;95.53;40.58;;;29.00;65.00;;;;;;6174972;28;83140;-67
2021/07/08 15:25:13;;;;;;;82.45;35.22;;;28.90;65.00;;;;;;6179849;28;82955;-66
2021/07/08 15:28:14;;;;;;;54.25;28.38;;;28.90;65.20;;;;;;6172984;28;84970;-65
2021/07/08 15:31:14;;;;;;;55.05;27.48;;;28.90;65.10;;;;;;6178189;28;85235;-66
2021/07/08 15:34:15;;;;;;;43.40;21.58;;;28.90;64.90;;;;;;6179941;28;83707;-66
2021/07/08 15:37:15;;;;;;;44.35;22.33;;;28.80;64.60;;;;;;6179071;28;83351;-66